Time,TemperatureF,DewpointF,PressureIn,WindDirection,WindDirectionDegrees,WindSpeedMPH,WindSpeedGustMPH,Humidity,HourlyPrecipIn,Conditions,Clouds,dailyrainin,SoftwareType,DateUTC
2013-03-19 00:12:00,49.3,49.0,29.66,South,180,0.0,-999.0,99,-99.99,,,0.00,Acu-Link.com,2013-03-19 04:12:00,
2013-03-19 00:27:00,49.3,49.0,29.67,WSW,247,0.0,-999.0,99,-99.99,,,0.00,Acu-Link.com,2013-03-19 04:27:00,
2013-03-19 00:42:00,49.3,49.0,29.66,East,90,0.0,-999.0,99,-99.99,,,0.00,Acu-Link.com,2013-03-19 04:42:00,
2013-03-19 00:57:00,49.3,49.0,29.66,SSW,202,0.0,-999.0,99,-99.99,,,0.00,Acu-Link.com,2013-03-19 04:57:00,
2013-03-19 01:12:00,49.3,49.0,29.66,SW,225,0.0,-999.0,99,-99.99,,,0.00,Acu-Link.com,2013-03-19 05:12:00,
2013-03-19 01:27:00,49.3,49.0,29.64,SSW,202,0.0,-999.0,99,-99.99,,,0.00,Acu-Link.com,2013-03-19 05:27:00,
2013-03-19 01:42:00,49.3,49.0,29.65,West,270,0.0,-999.0,99,-99.99,,,0.00,Acu-Link.com,2013-03-19 05:42:00,
2013-03-19 01:57:00,49.3,49.0,29.65,South,180,0.0,-999.0,99,-99.99,,,0.00,Acu-Link.com,2013-03-19 05:57:00,
2013-03-19 02:13:00,49.3,49.0,29.65,South,180,0.0,-999.0,99,-99.99,,,0.00,Acu-Link.com,2013-03-19 06:13:00,
2013-03-19 02:28:00,49.5,49.2,29.64,SW,225,0.0,-999.0,99,-99.99,,,0.00,Acu-Link.com,2013-03-19 06:28:00,
2013-03-19 02:43:00,49.6,49.3,29.64,ENE,67,0.0,-999.0,99,-99.99,,,0.00,Acu-Link.com,2013-03-19 06:43:00,
2013-03-19 02:58:00,49.6,49.3,29.63,WSW,247,0.0,-999.0,99,-99.99,,,0.00,Acu-Link.com,2013-03-19 06:58:00,
2013-03-19 03:13:00,49.6,49.3,29.63,ENE,67,0.0,-999.0,99,-99.99,,,0.00,Acu-Link.com,2013-03-19 07:13:00,
2013-03-19 03:28:00,49.6,49.3,29.63,West,270,0.0,-999.0,99,-99.99,,,0.00,Acu-Link.com,2013-03-19 07:28:00,
2013-03-19 03:43:00,49.6,49.3,29.63,SW,225,0.0,-999.0,99,-99.99,,,0.00,Acu-Link.com,2013-03-19 07:43:00,
2013-03-19 03:58:00,49.8,49.5,29.62,WSW,247,0.0,-999.0,99,-99.99,,,0.00,Acu-Link.com,2013-03-19 07:58:00,
2013-03-19 04:14:00,49.8,49.5,29.62,NE,45,0.0,-999.0,99,-99.99,,,0.00,Acu-Link.com,2013-03-19 08:14:00,
2013-03-19 04:29:00,50.0,49.7,29.63,SSW,202,0.0,-999.0,99,-99.99,,,0.00,Acu-Link.com,2013-03-19 08:29:00,
2013-03-19 04:44:00,50.4,50.1,29.63,West,270,0.0,-999.0,99,-99.99,,,0.00,Acu-Link.com,2013-03-19 08:44:00,
2013-03-19 04:59:00,50.4,50.1,29.66,West,270,1.7,-999.0,99,-99.99,,,0.00,Acu-Link.com,2013-03-19 08:59:00,
2013-03-19 05:14:00,50.5,50.2,29.65,WSW,247,0.0,-999.0,99,-99.99,,,0.00,Acu-Link.com,2013-03-19 09:14:00,
2013-03-19 05:30:00,50.5,50.2,29.65,WSW,247,1.1,-999.0,99,-99.99,,,0.00,Acu-Link.com,2013-03-19 09:30:00,
2013-03-19 05:45:00,50.5,50.2,29.62,West,270,0.0,-999.0,99,-99.99,,,0.01,Acu-Link.com,2013-03-19 09:45:00,
2013-03-19 06:00:00,50.9,50.6,29.68,WSW,247,2.2,-999.0,99,-99.99,,,0.01,Acu-Link.com,2013-03-19 10:00:00,
2013-03-19 06:15:00,50.7,50.4,29.67,West,270,1.7,-999.0,99,-99.99,,,0.01,Acu-Link.com,2013-03-19 10:15:00,
2013-03-19 06:30:00,50.7,50.4,29.65,NNE,22,0.0,-999.0,99,-99.99,,,0.02,Acu-Link.com,2013-03-19 10:30:00,
2013-03-19 06:45:00,50.7,50.4,29.68,West,270,0.0,-999.0,99,-99.99,,,0.02,Acu-Link.com,2013-03-19 10:45:00,
2013-03-19 07:00:00,50.7,50.4,29.69,WSW,247,0.0,-999.0,99,-99.99,,,0.02,Acu-Link.com,2013-03-19 11:00:00,
2013-03-19 07:15:00,50.5,50.2,29.69,SW,225,0.0,-999.0,99,-99.99,,,0.02,Acu-Link.com,2013-03-19 11:15:00,
2013-03-19 07:30:00,50.5,50.2,29.68,South,180,0.0,-999.0,99,-99.99,,,0.02,Acu-Link.com,2013-03-19 11:30:00,
2013-03-19 07:46:00,50.4,50.1,29.69,WSW,247,0.0,-999.0,99,-99.99,,,0.02,Acu-Link.com,2013-03-19 11:46:00,
2013-03-19 08:01:00,49.8,49.5,29.70,SSW,202,1.7,-999.0,99,-99.99,,,0.02,Acu-Link.com,2013-03-19 12:01:00,
2013-03-19 09:01:00,49.8,49.5,29.72,SW,225,2.2,-999.0,99,-99.99,,,0.02,Acu-Link.com,2013-03-19 13:01:00,
2013-03-19 09:16:00,50.2,49.9,29.72,SSW,202,2.2,-999.0,99,-99.99,,,0.02,Acu-Link.com,2013-03-19 13:16:00,
2013-03-19 09:46:00,51.6,51.1,29.73,WSW,247,1.7,-999.0,98,-99.99,,,0.02,Acu-Link.com,2013-03-19 13:46:00,
2013-03-19 10:02:00,52.5,51.4,29.74,West,270,2.7,-999.0,96,-99.99,,,0.02,Acu-Link.com,2013-03-19 14:02:00,
2013-03-19 10:32:00,54.1,51.8,29.75,WSW,247,0.0,-999.0,92,-99.99,,,0.02,Acu-Link.com,2013-03-19 14:32:00,
2013-03-19 10:47:00,54.7,51.8,29.75,West,270,1.1,-999.0,90,-99.99,,,0.02,Acu-Link.com,2013-03-19 14:47:00,
2013-03-19 11:02:00,55.2,51.4,29.76,SSW,202,2.2,-999.0,87,-99.99,,,0.02,Acu-Link.com,2013-03-19 15:02:00,
2013-03-19 11:17:00,56.5,51.7,29.76,West,270,2.2,-999.0,84,-99.99,,,0.02,Acu-Link.com,2013-03-19 15:17:00,
2013-03-19 11:32:00,57.9,52.1,29.76,WSW,247,2.2,-999.0,81,-99.99,,,0.02,Acu-Link.com,2013-03-19 15:32:00,
2013-03-19 11:48:00,58.8,52.0,29.75,West,270,1.7,-999.0,78,-99.99,,,0.02,Acu-Link.com,2013-03-19 15:48:00,
2013-03-19 12:03:00,60.4,52.8,29.75,SE,135,1.7,-999.0,76,-99.99,,,0.02,Acu-Link.com,2013-03-19 16:03:00,
2013-03-19 12:18:00,61.9,52.4,29.75,SW,225,3.2,-999.0,71,-99.99,,,0.02,Acu-Link.com,2013-03-19 16:18:00,
2013-03-19 12:33:00,62.4,50.1,29.75,ENE,67,1.1,-999.0,64,-99.99,,,0.02,Acu-Link.com,2013-03-19 16:33:00,
2013-03-19 12:48:00,63.7,47.7,29.75,WSW,247,2.7,-999.0,56,-99.99,,,0.02,Acu-Link.com,2013-03-19 16:48:00,
2013-03-19 13:03:00,64.4,48.8,29.74,East,90,1.7,-999.0,57,-99.99,,,0.02,Acu-Link.com,2013-03-19 17:03:00,
2013-03-19 13:18:00,66.7,44.1,29.74,West,270,3.7,-999.0,44,-99.99,,,0.02,Acu-Link.com,2013-03-19 17:18:00,
2013-03-19 13:33:00,67.5,42.3,29.74,West,270,5.8,-999.0,40,-99.99,,,0.02,Acu-Link.com,2013-03-19 17:33:00,
2013-03-19 13:48:00,67.5,44.2,29.73,SSW,202,2.7,-999.0,43,-99.99,,,0.02,Acu-Link.com,2013-03-19 17:48:00,
2013-03-19 14:04:00,67.8,43.2,29.73,South,180,2.7,-999.0,41,-99.99,,,0.02,Acu-Link.com,2013-03-19 18:04:00,
2013-03-19 14:19:00,70.0,43.2,29.72,WNW,292,3.7,-999.0,38,-99.99,,,0.02,Acu-Link.com,2013-03-19 18:19:00,
2013-03-19 14:34:00,69.4,39.8,29.71,West,270,3.2,-999.0,34,-99.99,,,0.02,Acu-Link.com,2013-03-19 18:34:00,
2013-03-19 14:49:00,69.4,37.4,29.71,West,270,1.7,-999.0,31,-99.99,,,0.02,Acu-Link.com,2013-03-19 18:49:00,
2013-03-19 15:04:00,70.3,38.2,29.72,WSW,247,3.2,-999.0,31,-99.99,,,0.02,Acu-Link.com,2013-03-19 19:04:00,
2013-03-19 15:19:00,71.8,38.7,29.71,SSE,157,3.7,-999.0,30,-99.99,,,0.02,Acu-Link.com,2013-03-19 19:19:00,
2013-03-19 15:34:00,72.3,37.4,29.70,NE,45,1.7,-999.0,28,-99.99,,,0.02,Acu-Link.com,2013-03-19 19:34:00,
2013-03-19 15:49:00,72.0,37.1,29.70,South,180,2.2,-999.0,28,-99.99,,,0.02,Acu-Link.com,2013-03-19 19:49:00,
2013-03-19 16:04:00,71.8,36.9,29.71,SW,225,2.7,-999.0,28,-99.99,,,0.02,Acu-Link.com,2013-03-19 20:04:00,
2013-03-19 16:20:00,72.1,34.3,29.71,South,180,2.2,-999.0,25,-99.99,,,0.02,Acu-Link.com,2013-03-19 20:20:00,
2013-03-19 16:35:00,73.2,32.1,29.72,SSW,202,2.7,-999.0,22,-99.99,,,0.02,Acu-Link.com,2013-03-19 20:35:00,
2013-03-19 16:50:00,74.8,31.0,29.72,SSE,157,2.7,-999.0,20,-99.99,,,0.02,Acu-Link.com,2013-03-19 20:50:00,
2013-03-19 17:05:00,73.9,30.3,29.72,SW,225,3.7,-999.0,20,-99.99,,,0.02,Acu-Link.com,2013-03-19 21:05:00,
2013-03-19 17:20:00,71.8,23.2,29.72,ESE,112,3.7,-999.0,16,-99.99,,,0.02,Acu-Link.com,2013-03-19 21:20:00,
2013-03-19 17:50:00,73.6,27.5,29.72,ESE,112,1.1,-999.0,18,-99.99,,,0.02,Acu-Link.com,2013-03-19 21:50:00,
2013-03-19 18:05:00,73.6,27.5,29.73,West,270,2.7,-999.0,18,-99.99,,,0.02,Acu-Link.com,2013-03-19 22:05:00,
2013-03-19 18:20:00,72.1,28.8,29.72,West,270,2.7,-999.0,20,-99.99,,,0.02,Acu-Link.com,2013-03-19 22:20:00,
2013-03-19 18:36:00,70.3,26.1,29.73,East,90,1.7,-999.0,19,-99.99,,,0.02,Acu-Link.com,2013-03-19 22:36:00,
2013-03-19 19:36:00,64.6,26.0,29.76,WNW,292,1.1,-999.0,23,-99.99,,,0.02,Acu-Link.com,2013-03-19 23:36:00,
2013-03-19 19:51:00,63.5,26.1,29.76,WSW,247,0.0,-999.0,24,-99.99,,,0.02,Acu-Link.com,2013-03-19 23:51:00,
2013-03-19 20:06:00,62.2,27.8,29.77,NNW,337,0.0,-999.0,27,-99.99,,,0.02,Acu-Link.com,2013-03-20 00:06:00,
2013-03-19 20:21:00,61.0,29.3,29.78,NE,45,0.0,-999.0,30,-99.99,,,0.02,Acu-Link.com,2013-03-20 00:21:00,
2013-03-19 20:36:00,59.7,27.4,29.77,WNW,292,1.7,-999.0,29,-99.99,,,0.02,Acu-Link.com,2013-03-20 00:36:00,
2013-03-19 20:51:00,58.8,29.8,29.78,WNW,292,0.0,-999.0,33,-99.99,,,0.02,Acu-Link.com,2013-03-20 00:51:00,
2013-03-19 21:07:00,58.3,29.3,29.78,NNW,337,0.0,-999.0,33,-99.99,,,0.02,Acu-Link.com,2013-03-20 01:07:00,
2013-03-19 21:22:00,57.6,29.4,29.78,West,270,0.0,-999.0,34,-99.99,,,0.02,Acu-Link.com,2013-03-20 01:22:00,
2013-03-19 21:37:00,57.0,29.6,29.79,WSW,247,0.0,-999.0,35,-99.99,,,0.02,Acu-Link.com,2013-03-20 01:37:00,
2013-03-19 21:52:00,56.3,30.4,29.79,West,270,0.0,-999.0,37,-99.99,,,0.02,Acu-Link.com,2013-03-20 01:52:00,
2013-03-19 22:07:00,55.4,30.9,29.79,NW,315,0.0,-999.0,39,-99.99,,,0.02,Acu-Link.com,2013-03-20 02:07:00,
2013-03-19 22:22:00,54.5,30.1,29.79,NNE,22,0.0,-999.0,39,-99.99,,,0.02,Acu-Link.com,2013-03-20 02:22:00,
2013-03-19 22:37:00,53.8,31.8,29.80,NNE,22,0.0,-999.0,43,-99.99,,,0.02,Acu-Link.com,2013-03-20 02:37:00,
2013-03-19 22:52:00,52.9,32.7,29.80,East,90,0.0,-999.0,46,-99.99,,,0.02,Acu-Link.com,2013-03-20 02:52:00,
2013-03-19 23:07:00,52.2,31.5,29.80,NNE,22,1.1,-999.0,45,-99.99,,,0.02,Acu-Link.com,2013-03-20 03:07:00,
2013-03-19 23:23:00,52.5,31.2,29.80,East,90,0.0,-999.0,44,-99.99,,,0.02,Acu-Link.com,2013-03-20 03:23:00,
2013-03-19 23:38:00,52.9,31.6,29.81,West,270,0.0,-999.0,44,-99.99,,,0.02,Acu-Link.com,2013-03-20 03:38:00,
2013-03-19 23:53:00,52.5,30.7,29.80,WNW,292,1.1,-999.0,43,-99.99,,,0.02,Acu-Link.com,2013-03-20 03:53:00,